createdAt,value
2023-06-16T00:00:37.664Z,12.85
2023-06-16T00:03:05.077Z,12.60
2023-06-16T00:05:32.371Z,11.93
2023-06-16T00:08:00.468Z,11.75
2023-06-16T00:10:27.207Z,11.82
2023-06-16T00:12:53.922Z,12.10
2023-06-16T00:15:21.274Z,11.68
2023-06-16T00:17:48.237Z,12.80
2023-06-16T00:20:16.157Z,12.23
2023-06-16T00:22:43.003Z,13.55
2023-06-16T00:25:10.545Z,14.30
2023-06-16T00:27:37.209Z,13.23
2023-06-16T00:30:04.791Z,12.93
2023-06-16T00:32:31.437Z,13.57
2023-06-16T00:34:58.037Z,14.43
2023-06-16T00:37:24.586Z,15.18
2023-06-16T00:39:51.071Z,14.48
2023-06-16T00:42:18.042Z,15.55
2023-06-16T00:44:44.500Z,15.00
2023-06-16T00:47:11.183Z,13.77
2023-06-16T00:49:37.889Z,14.23
2023-06-16T00:52:06.919Z,14.00
2023-06-16T00:54:33.669Z,13.48
2023-06-16T00:57:00.673Z,13.50
2023-06-16T00:59:28.251Z,13.27
2023-06-16T01:01:57.009Z,14.88
2023-06-16T01:04:24.247Z,13.40
2023-06-16T01:06:58.694Z,13.48
2023-06-16T01:12:12.819Z,13.88
2023-06-16T01:15:02.682Z,15.45
2023-06-16T01:17:30.234Z,15.65
2023-06-16T01:20:20.224Z,14.70
2023-06-16T01:22:49.667Z,15.10
2023-06-16T01:25:16.580Z,14.68
2023-06-16T01:27:48.848Z,13.75
2023-06-16T01:30:16.942Z,14.60
2023-06-16T01:32:46.458Z,13.52
2023-06-16T01:35:13.552Z,13.70
2023-06-16T01:37:41.224Z,13.32
2023-06-16T01:40:08.720Z,13.68
2023-06-16T01:42:36.224Z,13.18
2023-06-16T01:45:03.397Z,14.75
2023-06-16T01:47:30.771Z,13.65
2023-06-16T01:49:57.683Z,14.18
2023-06-16T01:52:24.221Z,15.93
2023-06-16T01:54:50.749Z,16.30
2023-06-16T01:57:17.331Z,16.60
2023-06-16T01:59:44.487Z,15.82
2023-06-16T02:02:17.059Z,16.92
2023-06-16T02:04:46.370Z,17.05
2023-06-16T02:07:14.997Z,17.58
2023-06-16T02:09:46.425Z,18.17
2023-06-16T02:12:13.769Z,18.50
2023-06-16T02:14:41.473Z,19.27
2023-06-16T02:17:14.021Z,20.38
2023-06-16T02:19:40.764Z,20.13
2023-06-16T02:22:07.309Z,20.77
2023-06-16T02:24:33.990Z,22.73
2023-06-16T02:27:00.710Z,21.20
2023-06-16T02:29:27.313Z,21.02
2023-06-16T02:31:53.928Z,22.15
2023-06-16T02:34:20.741Z,22.02
2023-06-16T02:36:47.654Z,23.13
2023-06-16T02:39:14.625Z,23.48
2023-06-16T02:41:42.319Z,22.88
2023-06-16T02:44:08.989Z,22.77
2023-06-16T02:46:35.822Z,23.70
2023-06-16T02:49:03.435Z,23.65
2023-06-16T02:51:30.596Z,22.58
2023-06-16T02:53:57.488Z,22.50
2023-06-16T02:56:25.187Z,25.23
2023-06-16T02:58:52.022Z,22.65
2023-06-16T03:01:18.765Z,24.30
2023-06-16T03:04:14.847Z,24.33
2023-06-16T03:06:52.865Z,23.38
2023-06-16T03:09:43.126Z,23.23
2023-06-16T03:12:12.481Z,23.50
2023-06-16T03:14:48.663Z,23.67
2023-06-16T03:17:21.767Z,23.50
2023-06-16T03:19:49.366Z,23.77
2023-06-16T03:22:18.991Z,22.58
2023-06-16T03:24:47.409Z,22.35
2023-06-16T03:27:16.552Z,21.98
2023-06-16T03:29:57.079Z,22.23
2023-06-16T03:32:24.520Z,20.83
2023-06-16T03:34:51.128Z,21.48
2023-06-16T03:37:18.676Z,21.40
2023-06-16T03:39:45.679Z,20.40
2023-06-16T03:42:12.696Z,20.13
2023-06-16T03:44:39.309Z,20.60
2023-06-16T03:47:06.275Z,20.95
2023-06-16T03:49:33.948Z,19.55
2023-06-16T03:52:00.693Z,19.33
2023-06-16T03:54:31.599Z,19.33
2023-06-16T03:56:58.602Z,18.75
2023-06-16T03:59:27.065Z,17.77
2023-06-16T04:01:54.035Z,19.48
2023-06-16T04:04:25.294Z,17.88
2023-06-16T04:06:52.183Z,17.98
2023-06-16T04:09:18.709Z,17.80
2023-06-16T04:11:45.458Z,16.63
2023-06-16T04:14:13.389Z,18.77
2023-06-16T04:16:43.651Z,17.40
2023-06-16T04:19:12.642Z,17.50
2023-06-16T04:21:39.912Z,17.88
2023-06-16T04:24:07.891Z,16.20
2023-06-16T04:26:35.457Z,16.58
2023-06-16T04:29:06.570Z,17.27
2023-06-16T04:31:38.568Z,17.02
2023-06-16T04:34:05.934Z,16.35
2023-06-16T04:36:36.373Z,16.52
2023-06-16T04:39:12.933Z,15.60
2023-06-16T04:41:39.649Z,16.73
2023-06-16T04:44:07.969Z,16.13
2023-06-16T04:46:34.736Z,15.38
2023-06-16T04:49:01.525Z,15.85
2023-06-16T04:51:28.072Z,15.93
2023-06-16T04:53:55.378Z,16.23
2023-06-16T04:56:21.952Z,15.85
2023-06-16T04:58:48.450Z,17.58
2023-06-16T05:01:15.079Z,15.98
2023-06-16T05:03:41.617Z,16.23
2023-06-16T05:06:08.527Z,17.27
2023-06-16T05:08:35.082Z,15.27
2023-06-16T05:11:03.110Z,15.43
2023-06-16T05:13:30.555Z,14.98
2023-06-16T05:15:57.792Z,14.27
2023-06-16T05:18:25.433Z,15.55
2023-06-16T05:20:52.206Z,15.57
2023-06-16T05:23:19.064Z,14.82
2023-06-16T05:25:46.436Z,14.73
2023-06-16T05:28:13.227Z,15.07
2023-06-16T05:30:40.064Z,15.38
2023-06-16T05:33:07.519Z,15.32
2023-06-16T05:35:34.127Z,14.57
2023-06-16T05:38:01.012Z,14.30
2023-06-16T05:40:28.639Z,12.75
2023-06-16T05:42:55.182Z,12.05
2023-06-16T05:45:21.889Z,12.02
2023-06-16T05:47:50.826Z,11.30
2023-06-16T05:50:19.032Z,11.75
2023-06-16T05:52:45.822Z,10.55
2023-06-16T05:55:12.489Z,11.32
2023-06-16T05:57:46.345Z,11.18
2023-06-16T06:00:13.688Z,9.55
2023-06-16T06:02:40.677Z,9.70
2023-06-16T06:05:16.560Z,9.73
2023-06-16T06:07:43.255Z,10.07
2023-06-16T06:10:12.710Z,8.70
2023-06-16T06:12:40.283Z,9.35
2023-06-16T06:15:07.621Z,7.93
2023-06-16T06:17:34.291Z,8.57
2023-06-16T06:20:01.090Z,8.77
2023-06-16T06:22:33.209Z,8.90
2023-06-16T06:25:02.219Z,8.32
2023-06-16T06:27:28.839Z,9.15
2023-06-16T06:29:55.729Z,8.20
2023-06-16T06:32:22.421Z,8.60
2023-06-16T06:34:49.190Z,8.15
2023-06-16T06:37:20.188Z,7.88
2023-06-16T06:39:48.725Z,7.82
2023-06-16T06:42:16.349Z,7.40
2023-06-16T06:44:55.942Z,8.00
2023-06-16T06:47:23.344Z,7.22
2023-06-16T06:49:57.375Z,7.63
2023-06-16T06:52:24.254Z,7.57
2023-06-16T06:54:50.808Z,7.28
2023-06-16T06:57:17.418Z,7.20
2023-06-16T06:59:44.115Z,7.13
2023-06-16T07:02:11.470Z,5.90
2023-06-16T07:04:39.550Z,6.45
2023-06-16T07:07:06.759Z,6.95
2023-06-16T07:09:33.391Z,7.38
2023-06-16T07:12:00.008Z,6.80
2023-06-16T07:14:27.793Z,7.45
2023-06-16T07:16:54.536Z,7.47
2023-06-16T07:19:21.231Z,6.88
2023-06-16T07:21:48.045Z,7.47
2023-06-16T07:24:15.380Z,7.43
2023-06-16T07:26:43.218Z,8.02
2023-06-16T07:29:09.880Z,7.80
2023-06-16T07:31:38.927Z,7.20
2023-06-16T07:34:05.522Z,6.90
2023-06-16T07:36:33.846Z,6.90
2023-06-16T07:39:00.529Z,6.38
2023-06-16T07:41:27.093Z,6.05
2023-06-16T07:43:54.300Z,6.80
2023-06-16T07:46:20.927Z,6.22
2023-06-16T07:48:47.740Z,6.53
2023-06-16T07:51:14.362Z,6.22
2023-06-16T07:53:42.421Z,6.45
2023-06-16T07:56:09.260Z,6.63
2023-06-16T07:58:39.430Z,6.47
2023-06-16T08:01:07.273Z,6.53
2023-06-16T08:03:37.283Z,6.60
2023-06-16T08:06:07.595Z,6.97
2023-06-16T08:08:34.307Z,9.07
2023-06-16T08:11:00.938Z,7.60
2023-06-16T08:13:30.985Z,7.90
2023-06-16T08:15:57.765Z,7.22
2023-06-16T08:18:25.495Z,7.95
2023-06-16T08:20:52.692Z,68.05
2023-06-16T08:23:19.450Z,7.00
2023-06-16T08:25:46.548Z,7.40
2023-06-16T08:28:13.709Z,7.50
2023-06-16T08:30:41.032Z,8.65
2023-06-16T08:33:10.833Z,9.07
2023-06-16T08:35:43.066Z,9.27
2023-06-16T08:38:09.832Z,9.43
2023-06-16T08:40:37.362Z,9.48
2023-06-16T08:43:06.443Z,8.77
2023-06-16T08:45:34.439Z,9.52
2023-06-16T08:48:01.306Z,9.00
2023-06-16T08:50:28.204Z,9.60
2023-06-16T08:52:58.573Z,10.93
2023-06-16T08:55:26.901Z,10.68
2023-06-16T08:57:58.625Z,10.45
2023-06-16T09:00:25.835Z,9.38
2023-06-16T09:02:57.798Z,8.68
2023-06-16T09:05:28.385Z,9.70
2023-06-16T09:07:55.361Z,8.90
2023-06-16T09:10:23.644Z,8.98
2023-06-16T09:12:56.637Z,9.90
2023-06-16T09:15:26.545Z,10.32
2023-06-16T09:17:53.670Z,9.02
2023-06-16T09:20:21.327Z,9.45
2023-06-16T09:22:56.734Z,9.52
2023-06-16T09:25:24.212Z,10.55
2023-06-16T09:27:52.055Z,9.48
2023-06-16T09:30:20.485Z,8.48
2023-06-16T09:32:48.959Z,8.60
2023-06-16T09:35:19.854Z,9.68
2023-06-16T09:37:47.463Z,9.90
2023-06-16T09:44:32.569Z,9.02
2023-06-16T09:46:59.809Z,9.07
2023-06-16T09:49:26.926Z,9.05
2023-06-16T09:51:54.539Z,8.48
2023-06-16T09:54:21.786Z,9.00
2023-06-16T09:56:48.816Z,7.95
2023-06-16T09:59:16.423Z,8.57
2023-06-16T10:01:46.862Z,8.45
2023-06-16T10:04:14.566Z,9.00
2023-06-16T10:06:42.844Z,8.20
2023-06-16T10:09:11.070Z,7.80
2023-06-16T10:11:40.074Z,7.95
2023-06-16T10:14:09.561Z,6.88
2023-06-16T10:16:37.347Z,6.72
2023-06-16T10:19:06.034Z,7.35
2023-06-16T10:21:33.043Z,7.20
2023-06-16T10:24:01.867Z,8.02
2023-06-16T10:26:30.180Z,8.07
2023-06-16T10:28:57.033Z,9.32
2023-06-16T10:31:24.317Z,9.68
2023-06-16T10:33:58.095Z,9.23
2023-06-16T10:36:25.698Z,9.57
2023-06-16T10:38:57.507Z,10.90
2023-06-16T10:41:24.496Z,11.50
2023-06-16T10:43:51.059Z,11.07
2023-06-16T10:46:22.792Z,10.40
2023-06-16T10:48:56.232Z,12.38
2023-06-16T10:51:42.225Z,12.35
2023-06-16T10:54:09.649Z,11.90
2023-06-16T10:57:10.197Z,13.20
2023-06-16T10:59:57.168Z,12.05
2023-06-16T11:02:24.454Z,10.60
2023-06-16T11:05:11.831Z,10.13
2023-06-16T11:07:41.154Z,11.13
2023-06-16T11:10:11.856Z,9.65
2023-06-16T11:12:38.924Z,11.90
2023-06-16T11:15:05.819Z,12.30
2023-06-16T11:17:33.131Z,11.43
2023-06-16T11:20:02.185Z,12.32
2023-06-16T11:22:30.324Z,11.93
2023-06-16T11:28:49.493Z,9.80
2023-06-16T11:31:16.837Z,8.95
2023-06-16T11:33:43.484Z,8.55
2023-06-16T11:36:20.915Z,7.68
2023-06-16T11:38:53.507Z,7.70
2023-06-16T11:41:21.253Z,7.47
2023-06-16T11:43:48.440Z,6.60
2023-06-16T11:46:16.719Z,6.25
2023-06-16T11:48:43.309Z,6.68
2023-06-16T11:51:09.958Z,6.80
2023-06-16T11:53:37.001Z,6.60
2023-06-16T11:56:10.207Z,6.75
2023-06-16T11:58:36.872Z,6.00
2023-06-16T12:01:05.184Z,6.50
2023-06-16T12:03:38.204Z,6.80
2023-06-16T12:06:10.666Z,6.15
2023-06-16T12:08:43.540Z,6.40
2023-06-16T12:11:10.516Z,6.80
2023-06-16T12:13:37.765Z,6.43
2023-06-16T12:16:05.089Z,6.22
2023-06-16T12:18:32.031Z,6.07
2023-06-16T12:20:58.629Z,6.25
2023-06-16T12:23:25.233Z,5.50
2023-06-16T12:25:51.924Z,5.50
2023-06-16T12:28:22.586Z,5.45
2023-06-16T12:30:49.139Z,5.40
2023-06-16T12:33:16.302Z,5.25
2023-06-16T12:35:43.086Z,4.63
2023-06-16T12:38:09.816Z,4.38
2023-06-16T12:40:37.068Z,4.68
2023-06-16T12:43:22.743Z,4.97
2023-06-16T12:45:51.484Z,3.65
2023-06-16T12:48:18.227Z,3.80
2023-06-16T12:50:45.147Z,4.00
2023-06-16T12:53:11.637Z,4.00
2023-06-16T12:55:38.335Z,4.35
2023-06-16T12:58:05.024Z,3.83
2023-06-16T13:00:32.186Z,3.90
2023-06-16T13:02:58.822Z,4.40
2023-06-16T13:05:25.515Z,4.60
2023-06-16T13:07:54.205Z,4.22
2023-06-16T13:10:21.286Z,3.78
2023-06-16T13:12:48.069Z,2.88
2023-06-16T13:15:14.655Z,2.63
2023-06-16T13:17:41.240Z,3.45
2023-06-16T13:20:08.408Z,4.20
2023-06-16T13:22:35.026Z,3.95
2023-06-16T13:25:01.603Z,3.63
2023-06-16T13:27:28.098Z,4.32
2023-06-16T13:29:54.774Z,3.60
2023-06-16T13:32:21.429Z,3.70
2023-06-16T13:34:48.098Z,3.78
2023-06-16T13:37:15.336Z,4.15
2023-06-16T13:39:42.026Z,3.80
2023-06-16T13:42:08.732Z,3.67
2023-06-16T13:44:35.524Z,3.78
2023-06-16T13:47:02.071Z,4.28
2023-06-16T13:49:28.678Z,3.92
2023-06-16T13:51:55.177Z,3.60
2023-06-16T13:54:21.931Z,4.13
2023-06-16T13:56:49.655Z,3.67
2023-06-16T13:59:16.340Z,4.35
2023-06-16T14:01:42.817Z,4.10
2023-06-16T14:04:09.345Z,4.20
2023-06-16T14:06:35.990Z,4.28
2023-06-16T14:09:02.699Z,4.10
2023-06-16T14:11:29.310Z,4.30
2023-06-16T14:13:55.971Z,4.30
2023-06-16T14:16:22.675Z,4.30
2023-06-16T14:18:51.309Z,4.35
2023-06-16T14:21:17.858Z,4.00
2023-06-16T14:23:44.434Z,3.95
2023-06-16T14:26:11.192Z,4.10
2023-06-16T14:28:37.866Z,3.67
2023-06-16T14:31:05.500Z,3.78
2023-06-16T14:33:32.162Z,3.67
2023-06-16T14:35:58.678Z,3.40
2023-06-16T14:38:25.284Z,3.97
2023-06-16T14:40:51.771Z,3.33
2023-06-16T14:43:18.310Z,3.30
2023-06-16T14:45:44.920Z,3.50
2023-06-16T14:48:11.527Z,2.97
2023-06-16T14:50:38.104Z,3.40
2023-06-16T14:53:04.705Z,3.28
2023-06-16T14:55:31.254Z,3.80
2023-06-16T14:57:57.881Z,3.30
2023-06-16T15:00:24.413Z,3.30
2023-06-16T15:02:51.248Z,3.55
2023-06-16T15:05:18.946Z,3.80
2023-06-16T15:07:45.890Z,5.80
2023-06-16T15:10:12.402Z,3.53
2023-06-16T15:12:38.957Z,3.50
2023-06-16T15:15:05.914Z,3.45
2023-06-16T15:17:32.470Z,3.42
2023-06-16T15:19:58.977Z,3.38
2023-06-16T15:22:26.208Z,3.35
2023-06-16T15:24:52.739Z,3.30
2023-06-16T15:27:19.357Z,3.85
2023-06-16T15:29:45.966Z,3.63
2023-06-16T15:32:12.732Z,3.60
2023-06-16T15:34:39.287Z,3.40
2023-06-16T15:37:06.889Z,3.42
2023-06-16T15:39:33.416Z,3.25
2023-06-16T15:41:59.986Z,3.30
2023-06-16T15:44:26.569Z,3.47
2023-06-16T15:46:53.183Z,3.25
2023-06-16T15:49:19.782Z,3.20
2023-06-16T15:51:46.353Z,3.38
2023-06-16T15:54:12.871Z,3.58
2023-06-16T15:56:39.613Z,4.00
2023-06-16T15:59:07.180Z,3.60
2023-06-16T16:01:33.923Z,3.42
2023-06-16T16:04:00.794Z,3.72
2023-06-16T16:06:27.469Z,3.50
2023-06-16T16:08:53.967Z,3.10
2023-06-16T16:11:20.655Z,3.72
2023-06-16T16:13:47.198Z,3.30
2023-06-16T16:16:13.752Z,3.60
2023-06-16T16:18:40.775Z,3.55
2023-06-16T16:21:08.478Z,3.47
2023-06-16T16:23:35.206Z,3.65
2023-06-16T16:26:01.910Z,3.63
2023-06-16T16:28:28.452Z,3.83
2023-06-16T16:30:55.113Z,3.42
2023-06-16T16:33:21.656Z,3.00
2023-06-16T16:35:48.282Z,3.30
2023-06-16T16:38:14.934Z,3.13
2023-06-16T16:40:41.967Z,3.53
2023-06-16T16:43:10.056Z,3.50
2023-06-16T16:45:37.138Z,3.00
2023-06-16T16:48:03.822Z,3.35
2023-06-16T16:50:30.525Z,3.33
2023-06-16T16:52:56.998Z,3.30
2023-06-16T16:55:35.388Z,2.97
2023-06-16T16:58:03.307Z,3.42
2023-06-16T17:00:29.914Z,3.25
2023-06-16T17:02:56.622Z,2.90
2023-06-16T17:05:23.271Z,3.03
2023-06-16T17:07:49.972Z,3.00
2023-06-16T17:10:16.683Z,3.03
2023-06-16T17:12:43.444Z,2.90
2023-06-16T17:15:10.321Z,3.00
2023-06-16T17:17:36.920Z,3.10
2023-06-16T17:20:05.275Z,3.50
2023-06-16T17:22:31.884Z,3.10
2023-06-16T17:24:58.402Z,3.63
2023-06-16T17:27:25.020Z,3.05
2023-06-16T17:29:51.548Z,3.10
2023-06-16T17:32:18.130Z,2.70
2023-06-16T17:34:44.683Z,3.20
2023-06-16T17:37:11.231Z,3.10
2023-06-16T17:39:37.800Z,3.53
2023-06-16T17:42:04.749Z,3.08
2023-06-16T17:44:31.239Z,3.00
2023-06-16T17:47:00.042Z,3.20
2023-06-16T17:49:26.770Z,3.00
2023-06-16T17:51:53.333Z,3.08
2023-06-16T17:54:20.610Z,3.08
2023-06-16T17:56:47.711Z,3.00
2023-06-16T17:59:14.408Z,2.88
2023-06-16T18:01:41.821Z,2.80
2023-06-16T18:04:08.460Z,2.92
2023-06-16T18:06:35.196Z,3.10
2023-06-16T18:09:01.748Z,3.08
2023-06-16T18:11:28.648Z,2.90
2023-06-16T18:13:55.188Z,3.05
2023-06-16T18:16:22.668Z,2.65
2023-06-16T18:18:49.397Z,3.30
2023-06-16T18:21:18.717Z,2.85
2023-06-16T18:23:45.308Z,2.78
2023-06-16T18:26:11.960Z,2.90
2023-06-16T18:28:38.525Z,2.80
2023-06-16T18:31:05.190Z,2.97
2023-06-16T18:33:31.725Z,3.05
2023-06-16T18:35:58.391Z,2.97
2023-06-16T18:38:24.894Z,2.72
2023-06-16T18:40:51.636Z,2.85
2023-06-16T18:43:25.456Z,2.50
2023-06-16T18:45:54.523Z,3.00
2023-06-16T18:48:21.215Z,2.47
2023-06-16T18:50:47.842Z,2.88
2023-06-16T18:53:14.954Z,2.80
2023-06-16T18:55:43.850Z,2.95
2023-06-16T18:58:10.858Z,2.83
2023-06-16T19:00:37.574Z,2.97
2023-06-16T19:03:04.235Z,2.70
2023-06-16T19:05:30.898Z,2.50
2023-06-16T19:07:57.490Z,2.88
2023-06-16T19:10:24.234Z,2.30
2023-06-16T19:12:53.636Z,2.50
2023-06-16T19:15:21.508Z,2.42
2023-06-16T19:17:48.226Z,2.38
2023-06-16T19:20:16.241Z,2.30
2023-06-16T19:22:43.389Z,2.40
2023-06-16T19:25:10.845Z,2.60
2023-06-16T19:27:38.025Z,2.80
2023-06-16T19:30:05.157Z,2.58
2023-06-16T19:32:32.038Z,2.50
2023-06-16T19:34:58.798Z,2.35
2023-06-16T19:37:25.649Z,2.75
2023-06-16T19:39:52.172Z,2.60
2023-06-16T19:42:18.696Z,2.42
2023-06-16T19:44:45.522Z,2.72
2023-06-16T19:47:12.232Z,2.60
2023-06-16T19:49:38.928Z,2.70
2023-06-16T19:52:05.678Z,2.50
2023-06-16T19:54:32.539Z,2.50
2023-06-16T19:56:59.079Z,2.42
2023-06-16T19:59:25.919Z,2.40
2023-06-16T20:01:52.552Z,2.70
2023-06-16T20:04:19.202Z,2.83
2023-06-16T20:06:45.831Z,2.15
2023-06-16T20:09:12.441Z,2.65
2023-06-16T20:11:38.935Z,2.72
2023-06-16T20:14:05.715Z,2.80
2023-06-16T20:16:32.345Z,2.92
2023-06-16T20:18:59.011Z,2.92
2023-06-16T20:21:25.741Z,2.28
2023-06-16T20:23:52.344Z,2.53
2023-06-16T20:26:18.948Z,2.38
2023-06-16T20:28:45.530Z,2.90
2023-06-16T20:31:12.176Z,2.63
2023-06-16T20:33:38.727Z,2.50
2023-06-16T20:36:07.292Z,2.75
2023-06-16T20:38:36.753Z,2.30
2023-06-16T20:41:04.106Z,2.40
2023-06-16T20:43:30.695Z,2.90
2023-06-16T20:45:57.716Z,2.70
2023-06-16T20:48:24.310Z,2.80
2023-06-16T20:50:50.914Z,2.60
2023-06-16T20:53:19.096Z,2.50
2023-06-16T20:55:45.585Z,2.60
2023-06-16T20:58:15.020Z,2.92
2023-06-16T21:00:41.652Z,2.45
2023-06-16T21:03:10.857Z,2.58
2023-06-16T21:05:47.512Z,2.45
2023-06-16T21:08:18.803Z,2.47
2023-06-16T21:10:46.454Z,2.20
2023-06-16T21:13:13.149Z,2.35
2023-06-16T21:15:40.802Z,2.75
2023-06-16T21:18:08.876Z,2.33
2023-06-16T21:20:35.525Z,3.03
2023-06-16T21:23:03.512Z,2.35
2023-06-16T21:25:30.908Z,2.50
2023-06-16T21:27:57.393Z,2.50
2023-06-16T21:30:24.107Z,2.92
2023-06-16T21:32:50.787Z,2.28
2023-06-16T21:35:17.454Z,2.65
2023-06-16T21:37:43.992Z,2.80
2023-06-16T21:40:11.840Z,3.05
2023-06-16T21:42:42.793Z,3.08
2023-06-16T21:45:10.187Z,2.72
2023-06-16T21:47:37.224Z,2.90
2023-06-16T21:50:04.853Z,2.70
2023-06-16T21:52:31.503Z,2.60
2023-06-16T21:55:01.220Z,2.63
2023-06-16T21:57:28.877Z,2.97
2023-06-16T21:59:55.472Z,2.50
2023-06-16T22:02:22.214Z,2.72
2023-06-16T22:04:52.360Z,2.60
2023-06-16T22:07:22.075Z,2.50
2023-06-16T22:09:49.955Z,2.60
2023-06-16T22:12:17.593Z,2.55
2023-06-16T22:14:46.377Z,2.67
2023-06-16T22:17:13.406Z,2.60
2023-06-16T22:19:40.582Z,2.72
2023-06-16T22:22:07.164Z,2.80
2023-06-16T22:24:34.798Z,2.78
2023-06-16T22:27:16.008Z,3.17
2023-06-16T22:29:47.831Z,3.20
2023-06-16T22:32:14.508Z,3.05
2023-06-16T22:34:41.048Z,3.03
2023-06-16T22:37:07.609Z,2.90
2023-06-16T22:39:34.365Z,2.92
2023-06-16T22:42:00.945Z,2.78
2023-06-16T22:44:27.746Z,3.22
2023-06-16T22:46:57.370Z,2.90
2023-06-16T22:49:24.982Z,2.70
2023-06-16T22:51:55.096Z,2.58
2023-06-16T22:54:21.675Z,2.58
2023-06-16T22:56:48.253Z,2.40
2023-06-16T22:59:15.014Z,3.38
2023-06-16T23:01:41.520Z,2.83
2023-06-16T23:04:08.345Z,2.97
2023-06-16T23:06:38.091Z,2.60
2023-06-16T23:09:04.891Z,2.90
2023-06-16T23:11:31.895Z,2.75
2023-06-16T23:13:58.815Z,2.95
2023-06-16T23:16:28.392Z,2.80
2023-06-16T23:18:55.022Z,3.17
2023-06-16T23:21:22.628Z,3.00
2023-06-16T23:23:52.312Z,2.97
2023-06-16T23:26:19.432Z,3.63
2023-06-16T23:28:50.617Z,2.90
2023-06-16T23:31:21.161Z,2.78
2023-06-16T23:33:48.060Z,3.10
2023-06-16T23:36:17.733Z,3.22
2023-06-16T23:38:45.964Z,3.10
2023-06-16T23:41:12.624Z,3.00
2023-06-16T23:43:39.601Z,2.90
2023-06-16T23:46:06.094Z,3.08
2023-06-16T23:48:32.656Z,3.00
2023-06-16T23:50:59.260Z,2.80
2023-06-16T23:53:25.833Z,3.17
2023-06-16T23:55:52.387Z,3.75
2023-06-16T23:58:18.911Z,3.10
